Time;durP1;ratioP1;P1;durP2;ratioP2;P2;SDS_P1;SDS_P2;PMS_P1;PMS_P2;Temp;Humidity;BMP_temperature;BMP_pressure;BME280_temperature;BME280_humidity;BME280_pressure;Samples;Min_cycle;Max_cycle;Signal;HPM_P1;HPM_P2
2022/01/23 00:00:40;;;;;;;15.18;10.35;;;5.70;99.90;;;;;;5063296;28;20055;-77
2022/01/23 00:03:11;;;;;;;22.40;11.02;;;5.70;99.90;;;;;;5059277;28;20627;-77
2022/01/23 00:05:41;;;;;;;20.35;9.73;;;5.70;99.90;;;;;;5067885;28;20041;-77
2022/01/23 00:08:07;;;;;;;17.85;10.95;;;5.70;99.90;;;;;;5056204;28;20053;-77
2022/01/23 00:10:33;;;;;;;18.00;10.15;;;5.70;99.90;;;;;;5058340;28;20405;-77
2022/01/23 00:18:20;;;;;;;25.45;11.10;;;5.70;99.90;;;;;;5064817;28;20135;-77
2022/01/23 00:20:46;;;;;;;21.23;11.57;;;5.70;99.90;;;;;;5048454;28;20076;-77
2022/01/23 00:23:26;;;;;;;19.58;10.57;;;5.70;99.90;;;;;;5068423;28;20079;-77
2022/01/23 00:31:21;;;;;;;29.83;12.57;;;5.70;99.90;;;;;;5070334;28;20056;-77
2022/01/23 00:33:48;;;;;;;26.30;12.13;;;5.70;99.90;;;;;;5068681;28;20498;-78
2022/01/23 00:36:13;;;;;;;19.98;12.43;;;5.70;99.90;;;;;;5102635;27;20142;-77
2022/01/23 00:38:40;;;;;;;19.33;10.65;;;5.70;99.90;;;;;;5068040;28;20497;-77
2022/01/23 00:41:05;;;;;;;25.65;11.98;;;5.70;99.90;;;;;;5069284;28;20056;-77
2022/01/23 00:43:34;;;;;;;20.15;10.65;;;5.70;99.90;;;;;;5065085;28;20457;-77
2022/01/23 00:46:21;;;;;;;;;;;5.70;99.90;;;;;;5099667;28;20119;-77
2022/01/23 00:51:29;;;;;;;20.17;11.10;;;5.60;99.90;;;;;;5065295;28;20288;-77
2022/01/23 00:53:57;;;;;;;21.38;11.07;;;5.60;99.90;;;;;;5063361;28;20492;-77
2022/01/23 00:56:22;;;;;;;18.75;11.85;;;5.70;99.90;;;;;;5069489;28;20048;-77
2022/01/23 00:58:48;;;;;;;17.70;11.15;;;5.60;99.90;;;;;;5069150;28;20048;-77
2022/01/23 01:01:15;;;;;;;26.38;12.35;;;5.60;99.90;;;;;;5068068;28;20090;-77
2022/01/23 01:03:41;;;;;;;23.35;10.80;;;5.60;99.90;;;;;;5068761;28;20040;-76
2022/01/23 01:06:07;;;;;;;18.50;10.48;;;5.60;99.90;;;;;;5069661;28;20447;-77
2022/01/23 01:08:33;;;;;;;28.95;12.35;;;5.60;99.90;;;;;;5065955;28;20069;-77
2022/01/23 01:13:30;;;;;;;21.88;11.75;;;5.60;99.90;;;;;;5063473;28;20127;-77
2022/01/23 01:16:35;;;;;;;25.05;11.98;;;5.60;99.90;;;;;;5068117;28;20051;-77
2022/01/23 01:32:50;;;;;;;18.17;11.85;;;5.60;99.90;;;;;;5067679;28;20060;-77
2022/01/23 01:35:30;;;;;;;32.92;12.70;;;5.60;99.90;;;;;;5065123;28;20072;-77
2022/01/23 01:37:56;;;;;;;22.23;14.35;;;5.50;99.90;;;;;;5076137;28;20045;-77
2022/01/23 01:40:23;;;;;;;18.85;12.73;;;5.60;99.90;;;;;;5067968;28;20036;-77
2022/01/23 01:42:50;;;;;;;20.85;12.88;;;5.60;99.90;;;;;;5060517;28;20557;-77
2022/01/23 01:45:22;;;;;;;19.90;12.88;;;5.60;99.90;;;;;;5102809;27;20055;-77
2022/01/23 01:47:49;;;;;;;19.38;12.18;;;5.60;99.90;;;;;;5066531;28;20484;-77
2022/01/23 01:50:14;;;;;;;22.10;11.13;;;5.60;99.90;;;;;;5066090;28;20037;-77
2022/01/23 01:52:41;;;;;;;26.17;13.05;;;5.60;99.90;;;;;;5098694;28;20041;-77
2022/01/23 01:55:10;;;;;;;20.13;12.32;;;5.60;99.90;;;;;;5068501;28;20886;-77
2022/01/23 01:57:51;;;;;;;;;;;5.60;99.90;;;;;;5066984;28;20055;-77
2022/01/23 02:00:38;;;;;;;23.15;12.38;;;5.60;99.90;;;;;;5067542;28;19967;-77
2022/01/23 02:08:26;;;;;;;20.17;10.63;;;5.50;99.90;;;;;;5043091;28;20060;-77
2022/01/23 02:10:57;;;;;;;16.98;10.68;;;5.60;99.90;;;;;;5060385;28;20053;-77
2022/01/23 02:13:34;;;;;;;25.08;12.85;;;5.50;99.90;;;;;;5061233;28;20173;-77
2022/01/23 02:24:12;;;;;;;25.63;13.10;;;5.60;99.90;;;;;;5067484;28;20060;-77
2022/01/23 02:56:35;;;;;;;22.77;12.15;;;5.50;99.90;;;;;;5064799;28;20414;-77
2022/01/23 02:59:11;;;;;;;17.20;9.93;;;5.50;99.90;;;;;;5064864;28;20055;-77
2022/01/23 03:01:47;;;;;;;30.83;14.48;;;5.50;99.90;;;;;;5107021;27;20105;-77
2022/01/23 03:04:13;;;;;;;17.42;11.30;;;5.50;99.90;;;;;;5065354;28;20565;-77
2022/01/23 03:09:52;;;;;;;18.98;11.50;;;5.50;99.90;;;;;;5063378;28;20048;-77
2022/01/23 03:28:18;;;;;;;27.87;12.27;;;5.50;99.90;;;;;;5067886;28;20421;-77
2022/01/23 03:33:39;;;;;;;25.65;12.18;;;5.50;99.90;;;;;;5056098;28;20137;-77
2022/01/23 03:36:05;;;;;;;31.73;13.32;;;5.50;99.90;;;;;;5066393;28;20072;-77
2022/01/23 03:38:31;;;;;;;24.15;12.70;;;5.50;99.90;;;;;;5049889;28;20125;-77
2022/01/23 03:40:57;;;;;;;25.58;12.18;;;5.50;99.90;;;;;;5065524;28;20486;-77
2022/01/23 03:43:29;;;;;;;26.35;12.32;;;5.50;99.90;;;;;;5069271;28;20041;-77
2022/01/23 03:50:52;;;;;;;19.95;11.38;;;5.50;99.90;;;;;;5065616;28;20998;-77
2022/01/23 03:53:18;;;;;;;20.50;12.02;;;5.50;99.90;;;;;;5059144;28;20040;-77
2022/01/23 03:55:45;;;;;;;27.77;14.23;;;5.50;99.90;;;;;;5060972;28;20052;-77
2022/01/23 03:58:13;;;;;;;25.42;13.10;;;5.50;99.90;;;;;;5062560;28;20056;-77
2022/01/23 04:00:39;;;;;;;;;;;5.50;99.90;;;;;;5070197;28;20044;-77
2022/01/23 04:03:04;;;;;;;22.83;13.40;;;5.50;99.90;;;;;;5067066;28;20435;-77
2022/01/23 04:05:30;;;;;;;28.27;14.07;;;5.40;99.90;;;;;;5060052;28;20045;-77
2022/01/23 04:07:56;;;;;;;25.65;14.20;;;5.50;99.90;;;;;;5057814;28;20479;-77
2022/01/23 04:10:23;;;;;;;31.95;13.32;;;5.50;99.90;;;;;;5063964;28;20047;-77
2022/01/23 04:12:54;;;;;;;32.20;12.80;;;5.50;99.90;;;;;;5063618;28;20341;-77
2022/01/23 04:20:41;;;;;;;24.77;14.00;;;5.50;99.90;;;;;;5100869;28;20059;-77
2022/01/23 05:01:11;;;;;;;28.23;15.30;;;5.50;99.90;;;;;;5059772;28;20110;-77
2022/01/23 05:06:24;;;;;;;28.10;14.90;;;5.50;99.90;;;;;;5060812;28;20136;-77
2022/01/23 05:08:50;;;;;;;28.02;14.88;;;5.50;99.90;;;;;;5088874;28;20059;-77
2022/01/23 05:11:16;;;;;;;25.48;12.82;;;5.50;99.90;;;;;;5064835;28;20040;-77
2022/01/23 05:13:42;;;;;;;27.67;14.13;;;5.50;99.90;;;;;;5066371;28;20041;-77
2022/01/23 05:16:10;;;;;;;29.55;14.63;;;5.50;99.90;;;;;;5067939;28;20052;-77
2022/01/23 05:18:36;;;;;;;23.48;14.10;;;5.50;99.90;;;;;;5068415;28;20041;-77
2022/01/23 05:21:33;;;;;;;29.40;14.77;;;5.50;99.90;;;;;;5064333;28;20067;-77
2022/01/23 05:23:53;;;;;;;25.33;14.25;;;5.50;99.90;;;;;;5069948;28;20581;-77
2022/01/23 05:26:19;;;;;;;18.63;12.30;;;5.50;99.90;;;;;;5068054;28;20036;-77
2022/01/23 05:28:45;;;;;;;24.85;14.27;;;5.50;99.90;;;;;;5093747;28;20119;-77
2022/01/23 05:31:10;;;;;;;22.42;14.57;;;5.50;99.90;;;;;;5064837;28;20515;-77
2022/01/23 05:33:36;;;;;;;24.13;13.98;;;5.50;99.90;;;;;;5096165;28;20106;-77
2022/01/23 05:36:02;;;;;;;20.88;13.40;;;5.50;99.90;;;;;;5068279;28;20056;-77
2022/01/23 05:38:27;;;;;;;24.77;14.30;;;5.50;99.90;;;;;;5067473;28;20109;-77
2022/01/23 05:40:57;;;;;;;27.88;14.18;;;5.50;99.90;;;;;;5069652;28;20648;-77
2022/01/23 05:43:24;;;;;;;20.67;13.45;;;5.50;99.90;;;;;;5064670;28;20045;-77
2022/01/23 05:45:51;;;;;;;20.63;12.73;;;5.50;99.90;;;;;;5101937;28;20037;-77
2022/01/23 05:48:17;;;;;;;20.88;12.50;;;5.50;99.90;;;;;;5066903;28;20070;-78
2022/01/23 05:50:43;;;;;;;21.13;13.82;;;5.50;99.90;;;;;;5066808;28;20081;-77
2022/01/23 05:53:09;;;;;;;21.98;12.88;;;5.50;99.90;;;;;;5063242;28;20049;-77
2022/01/23 05:55:35;;;;;;;23.63;13.30;;;5.50;99.90;;;;;;5062592;28;20486;-78
2022/01/23 05:58:00;;;;;;;22.45;11.93;;;5.50;99.90;;;;;;5071381;28;20072;-78
2022/01/23 06:00:26;;;;;;;21.60;11.98;;;5.50;99.90;;;;;;5063139;28;20094;-78
2022/01/23 06:02:53;;;;;;;19.70;11.90;;;5.50;99.90;;;;;;5067460;28;20040;-77
2022/01/23 06:05:19;;;;;;;18.63;11.40;;;5.50;99.90;;;;;;5084059;28;20044;-77
2022/01/23 06:07:46;;;;;;;26.50;12.30;;;5.50;99.90;;;;;;5068118;28;20102;-77
2022/01/23 06:10:21;;;;;;;20.75;11.98;;;5.50;99.90;;;;;;5068393;28;20094;-76
2022/01/23 06:12:46;;;;;;;18.17;11.60;;;5.50;99.90;;;;;;5063894;28;20048;-76
2022/01/23 06:15:12;;;;;;;20.33;10.80;;;5.50;99.90;;;;;;5075130;28;20059;-76
2022/01/23 06:17:39;;;;;;;19.30;12.02;;;5.40;99.90;;;;;;5067637;28;20481;-76
2022/01/23 06:20:07;;;;;;;19.92;11.85;;;5.50;99.90;;;;;;5057939;28;20095;-76
2022/01/23 06:22:33;;;;;;;22.45;11.95;;;5.40;99.90;;;;;;5067045;28;20507;-75
2022/01/23 06:24:59;;;;;;;20.77;10.52;;;5.50;99.90;;;;;;5068057;28;20044;-77
2022/01/23 06:27:27;;;;;;;29.30;13.85;;;5.50;99.90;;;;;;5048055;28;20059;-77
2022/01/23 06:29:53;;;;;;;24.65;12.35;;;5.40;99.90;;;;;;5096457;28;20424;-77
2022/01/23 06:32:19;;;;;;;27.33;13.43;;;5.50;99.90;;;;;;5059204;28;20048;-76
2022/01/23 06:34:46;;;;;;;22.73;11.95;;;5.40;99.90;;;;;;5065825;28;20060;-76
2022/01/23 06:37:12;;;;;;;22.02;11.15;;;5.50;99.90;;;;;;5096920;28;20058;-77
2022/01/23 06:39:38;;;;;;;24.08;11.85;;;5.50;99.90;;;;;;5049310;28;20490;-76
2022/01/23 06:42:04;;;;;;;24.52;12.50;;;5.50;99.90;;;;;;5066728;28;20110;-77
2022/01/23 06:44:29;;;;;;;18.60;11.18;;;5.50;99.90;;;;;;5067670;28;20049;-77
2022/01/23 06:46:56;;;;;;;25.45;11.35;;;5.50;99.90;;;;;;5063928;28;20058;-78
2022/01/23 06:49:21;;;;;;;20.02;11.50;;;5.50;99.90;;;;;;5050132;28;20056;-78
2022/01/23 06:51:49;;;;;;;20.52;11.10;;;5.50;99.90;;;;;;5064834;28;20101;-78
2022/01/23 06:54:15;;;;;;;19.55;11.77;;;5.50;99.90;;;;;;5059981;28;20048;-77
2022/01/23 06:56:40;;;;;;;21.15;11.93;;;5.50;99.90;;;;;;5061988;28;20037;-77
2022/01/23 06:59:07;;;;;;;19.73;12.68;;;5.50;99.90;;;;;;5059475;28;20051;-78
2022/01/23 07:01:33;;;;;;;19.42;9.80;;;5.50;99.90;;;;;;5062991;28;20553;-78
2022/01/23 07:03:59;;;;;;;19.27;11.27;;;5.50;99.90;;;;;;5062250;28;20155;-78
2022/01/23 07:06:25;;;;;;;21.88;12.05;;;5.40;99.90;;;;;;5069078;28;20870;-77
2022/01/23 07:08:51;;;;;;;19.80;12.65;;;5.40;99.90;;;;;;5083612;28;20051;-78
2022/01/23 07:11:16;;;;;;;28.50;13.77;;;5.40;99.90;;;;;;5064953;28;20048;-78
2022/01/23 07:13:42;;;;;;;23.35;11.73;;;5.40;99.90;;;;;;5082007;28;20055;-77
2022/01/23 07:16:08;;;;;;;19.17;12.45;;;5.40;99.90;;;;;;5060779;28;20127;-78
2022/01/23 07:18:34;;;;;;;22.15;12.43;;;5.50;99.90;;;;;;5070136;28;20120;-78
2022/01/23 07:20:59;;;;;;;26.17;12.23;;;5.40;99.90;;;;;;5064945;28;20052;-78
2022/01/23 07:23:25;;;;;;;19.70;11.77;;;5.40;99.90;;;;;;5057571;28;20063;-78
2022/01/23 07:25:51;;;;;;;17.40;11.50;;;5.40;99.90;;;;;;5063493;28;21245;-78
2022/01/23 07:28:20;;;;;;;18.13;11.57;;;5.40;99.90;;;;;;5060263;28;20044;-78
2022/01/23 07:30:59;;;;;;;22.52;11.23;;;5.40;99.90;;;;;;5058499;28;20048;-76
2022/01/23 07:33:25;;;;;;;24.13;11.48;;;5.40;99.90;;;;;;5098730;27;20059;-78
2022/01/23 07:35:50;;;;;;;16.92;11.88;;;5.40;99.90;;;;;;5040772;28;20044;-77
2022/01/23 07:38:17;;;;;;;21.20;11.38;;;5.40;99.90;;;;;;5070665;28;20044;-76
2022/01/23 07:40:48;;;;;;;18.48;11.80;;;5.40;99.90;;;;;;5060659;28;20097;-76
2022/01/23 07:43:14;;;;;;;20.40;12.63;;;5.40;99.90;;;;;;5061414;28;20037;-76
2022/01/23 07:45:40;;;;;;;22.17;13.25;;;5.40;99.90;;;;;;5061114;28;20171;-76
2022/01/23 07:48:06;;;;;;;23.17;12.95;;;5.40;99.90;;;;;;5065530;28;20127;-77
2022/01/23 07:50:33;;;;;;;23.92;12.25;;;5.40;99.90;;;;;;5065784;28;20156;-77
2022/01/23 07:52:59;;;;;;;25.05;13.50;;;5.40;99.90;;;;;;5065994;28;21298;-76
2022/01/23 07:55:24;;;;;;;21.83;12.52;;;5.40;99.90;;;;;;5059098;28;20043;-78
2022/01/23 07:57:52;;;;;;;27.55;15.23;;;5.40;99.90;;;;;;5063021;28;20417;-76
2022/01/23 08:00:19;;;;;;;23.08;12.60;;;5.40;99.90;;;;;;5084245;28;20056;-75
2022/01/23 08:02:45;;;;;;;21.98;12.68;;;5.40;99.90;;;;;;5063776;28;20132;-75
2022/01/23 08:05:11;;;;;;;25.20;14.05;;;5.40;99.90;;;;;;5066166;28;20140;-78
2022/01/23 08:07:37;;;;;;;26.40;14.25;;;5.50;99.90;;;;;;5065105;28;20135;-78
2022/01/23 08:10:06;;;;;;;25.25;12.73;;;5.50;99.90;;;;;;5060854;28;20478;-77
2022/01/23 08:12:33;;;;;;;22.92;13.73;;;5.50;99.90;;;;;;5074780;28;20151;-74
2022/01/23 08:15:00;;;;;;;20.05;13.48;;;5.50;99.90;;;;;;5065010;28;20043;-75
2022/01/23 08:17:27;;;;;;;25.13;15.23;;;5.50;99.90;;;;;;5066321;28;20170;-75
2022/01/23 08:20:00;;;;;;;26.80;14.80;;;5.50;99.90;;;;;;5062503;28;20051;-75
2022/01/23 08:22:29;;;;;;;26.27;12.90;;;5.50;99.90;;;;;;5096195;28;20076;-74
2022/01/23 08:24:56;;;;;;;24.27;13.05;;;5.60;99.90;;;;;;5064559;28;20045;-74
2022/01/23 08:27:23;;;;;;;23.05;14.68;;;5.60;99.90;;;;;;5065844;28;20102;-75
2022/01/23 08:29:51;;;;;;;21.60;13.95;;;5.60;99.90;;;;;;5098514;28;20509;-74
2022/01/23 08:32:16;;;;;;;20.38;12.70;;;5.60;99.90;;;;;;5065061;28;20059;-76
2022/01/23 08:34:42;;;;;;;21.38;13.05;;;5.60;99.90;;;;;;5066152;28;20049;-76
2022/01/23 08:37:08;;;;;;;21.65;13.60;;;5.60;99.90;;;;;;5061787;28;20397;-76
2022/01/23 08:39:36;;;;;;;20.35;12.10;;;5.60;99.90;;;;;;5058198;28;20033;-76
2022/01/23 08:42:15;;;;;;;25.67;13.85;;;5.70;99.90;;;;;;5045888;28;20131;-76
2022/01/23 08:44:41;;;;;;;19.02;12.43;;;5.70;99.90;;;;;;5063173;28;20040;-76
2022/01/23 08:47:08;;;;;;;26.73;13.65;;;5.70;99.90;;;;;;5066632;28;20167;-76
2022/01/23 08:49:44;;;;;;;21.90;12.10;;;5.70;99.90;;;;;;5061732;28;20436;-76
2022/01/23 08:52:11;;;;;;;19.00;12.02;;;5.70;99.90;;;;;;5067460;28;20052;-76
2022/01/23 08:54:36;;;;;;;28.02;13.63;;;5.80;99.90;;;;;;5065765;28;20097;-76
2022/01/23 08:57:02;;;;;;;19.60;12.07;;;5.80;99.90;;;;;;5057765;28;20501;-77
2022/01/23 08:59:28;;;;;;;25.33;11.73;;;5.80;99.90;;;;;;5052356;28;20063;-76
2022/01/23 09:01:54;;;;;;;23.65;11.80;;;5.80;99.90;;;;;;5061890;28;20128;-76
2022/01/23 09:04:20;;;;;;;23.25;12.02;;;5.80;99.90;;;;;;5068760;28;20110;-76
2022/01/23 09:06:47;;;;;;;20.08;11.43;;;5.90;99.90;;;;;;5066419;28;20482;-76
2022/01/23 09:09:20;;;;;;;16.90;11.13;;;5.90;99.90;;;;;;5065135;28;20044;-76
2022/01/23 09:12:01;;;;;;;15.65;9.65;;;5.90;99.90;;;;;;5068494;28;20608;-76
2022/01/23 09:14:27;;;;;;;16.17;9.55;;;6.00;99.90;;;;;;5068977;28;20050;-76
2022/01/23 09:16:54;;;;;;;18.95;11.25;;;6.00;99.90;;;;;;5059609;28;20029;-76
2022/01/23 09:19:22;;;;;;;14.98;10.65;;;6.00;99.90;;;;;;5064718;28;20402;-76
2022/01/23 09:21:51;;;;;;;17.17;9.77;;;6.00;99.90;;;;;;5069664;28;20751;-76
2022/01/23 09:24:21;;;;;;;14.13;9.25;;;6.10;99.90;;;;;;5099483;28;20049;-76
2022/01/23 09:26:53;;;;;;;16.08;9.93;;;6.10;99.90;;;;;;5066000;28;20509;-76
2022/01/23 09:29:42;;;;;;;13.85;8.70;;;6.10;99.90;;;;;;5100960;28;20048;-76
2022/01/23 09:32:13;;;;;;;14.07;8.07;;;6.10;99.90;;;;;;5066588;28;20093;-75
2022/01/23 09:34:42;;;;;;;14.82;9.13;;;6.20;99.90;;;;;;5060853;28;20056;-77
2022/01/23 09:37:09;;;;;;;;;;;6.20;99.90;;;;;;5065208;28;20453;-75
2022/01/23 09:39:36;;;;;;;14.05;8.48;;;6.20;99.90;;;;;;5056172;28;19920;-75
2022/01/23 09:42:26;;;;;;;14.48;8.35;;;6.20;99.90;;;;;;5066440;28;20056;-75
2022/01/23 09:44:57;;;;;;;13.25;7.90;;;6.30;99.90;;;;;;5059903;28;20053;-76
2022/01/23 09:47:26;;;;;;;9.98;6.35;;;6.30;99.90;;;;;;5064630;28;20124;-78
2022/01/23 09:49:53;;;;;;;8.85;6.38;;;6.40;99.90;;;;;;5067198;28;20036;-78
2022/01/23 09:52:21;;;;;;;7.20;5.72;;;6.40;99.90;;;;;;5058866;28;20053;-78
2022/01/23 09:54:57;;;;;;;9.15;4.90;;;6.40;99.90;;;;;;5073609;28;20083;-76
2022/01/23 09:57:25;;;;;;;10.63;5.00;;;6.50;99.90;;;;;;5048836;28;20090;-76
2022/01/23 09:59:54;;;;;;;;;;;6.50;99.90;;;;;;5095112;27;20492;-77
2022/01/23 10:02:21;;;;;;;8.05;5.50;;;6.50;99.90;;;;;;5063550;28;19927;-76
2022/01/23 10:04:46;;;;;;;27.95;6.93;;;6.60;99.90;;;;;;5068621;28;20079;-76
2022/01/23 10:07:13;;;;;;;12.38;5.93;;;6.60;99.90;;;;;;5065204;28;20485;-76
2022/01/23 10:09:38;;;;;;;11.45;6.05;;;6.60;99.90;;;;;;5065555;28;20051;-76
2022/01/23 10:12:06;;;;;;;6.60;4.70;;;6.70;99.90;;;;;;5067897;28;20040;-76
2022/01/23 10:14:32;;;;;;;10.93;5.03;;;6.70;99.90;;;;;;5059921;28;20047;-76
2022/01/23 10:16:59;;;;;;;5.78;4.32;;;6.70;99.90;;;;;;5099958;27;20036;-76
2022/01/23 10:19:25;;;;;;;59.15;8.88;;;6.80;99.90;;;;;;5064614;28;20086;-75
2022/01/23 10:21:51;;;;;;;39.17;6.53;;;6.80;99.90;;;;;;5066357;28;20037;-76
2022/01/23 10:24:16;;;;;;;15.73;4.85;;;6.80;99.90;;;;;;5065793;28;20041;-76
2022/01/23 10:26:53;;;;;;;9.85;3.97;;;6.80;99.90;;;;;;5047307;28;20052;-76
2022/01/23 10:29:26;;;;;;;9.52;5.03;;;6.90;99.90;;;;;;5100383;27;20049;-76
2022/01/23 10:32:12;;;;;;;7.40;3.65;;;6.90;99.90;;;;;;5065524;28;20045;-75
2022/01/23 10:34:41;;;;;;;6.10;4.05;;;6.90;99.90;;;;;;5059016;28;20076;-76
2022/01/23 10:37:07;;;;;;;7.05;3.90;;;7.00;99.90;;;;;;5066298;28;20521;-76
2022/01/23 10:39:46;;;;;;;8.05;4.45;;;7.00;99.90;;;;;;5065708;28;20124;-76
2022/01/23 10:48:40;;;;;;;8.23;4.47;;;7.10;99.90;;;;;;5055969;28;20056;-76
2022/01/23 10:51:30;;;;;;;8.45;5.60;;;7.10;99.90;;;;;;5071244;28;20069;-76
2022/01/23 10:53:59;;;;;;;9.10;5.40;;;7.10;99.90;;;;;;5065148;28;20520;-76
2022/01/23 10:56:33;;;;;;;7.40;4.72;;;7.10;99.90;;;;;;5057811;28;20049;-75
2022/01/23 10:59:17;;;;;;;8.88;4.93;;;7.10;99.90;;;;;;5098006;28;20049;-76
2022/01/23 11:02:04;;;;;;;7.22;5.05;;;7.10;99.90;;;;;;5064494;28;20041;-76
2022/01/23 11:04:35;;;;;;;3.92;3.40;;;7.20;99.90;;;;;;5047975;28;20049;-76
2022/01/23 11:07:07;;;;;;;6.93;3.72;;;7.20;99.90;;;;;;5075155;28;20045;-76
2022/01/23 11:09:38;;;;;;;12.85;3.28;;;7.10;99.90;;;;;;5066559;28;20123;-76
2022/01/23 11:12:14;;;;;;;4.15;3.40;;;7.20;99.90;;;;;;5065759;28;20054;-76
2022/01/23 11:17:26;;;;;;;5.90;2.90;;;7.20;99.90;;;;;;5066599;28;20090;-77
2022/01/23 11:20:00;;;;;;;5.10;2.75;;;7.20;99.90;;;;;;5064959;28;20049;-76
2022/01/23 11:22:29;;;;;;;4.47;2.65;;;7.30;99.90;;;;;;5059134;28;20036;-76
2022/01/23 11:25:03;;;;;;;4.35;2.10;;;7.30;99.90;;;;;;5061947;28;20055;-77
2022/01/23 11:27:35;;;;;;;4.15;2.00;;;7.30;99.90;;;;;;5057907;28;20048;-76
2022/01/23 11:30:05;;;;;;;3.33;1.83;;;7.30;99.90;;;;;;5060635;28;20465;-77
2022/01/23 11:32:36;;;;;;;4.57;1.90;;;7.40;99.90;;;;;;5098460;27;20063;-76
2022/01/23 11:35:07;;;;;;;3.22;1.48;;;7.30;99.90;;;;;;5061935;28;20498;-76
2022/01/23 11:37:36;;;;;;;5.95;1.45;;;7.30;99.90;;;;;;5061171;28;20139;-77
2022/01/23 11:40:09;;;;;;;2.45;1.10;;;7.30;99.90;;;;;;5060640;28;20045;-78
2022/01/23 11:53:59;;;;;;;2.25;1.58;;;7.20;99.90;;;;;;5067676;28;20055;-78
2022/01/23 11:56:25;;;;;;;1.65;1.35;;;7.20;99.90;;;;;;5056595;28;20059;-76
2022/01/23 11:59:01;;;;;;;3.83;1.63;;;7.20;99.90;;;;;;5064302;28;20052;-75
2022/01/23 12:01:27;;;;;;;3.78;1.45;;;7.20;99.90;;;;;;5062769;28;20052;-76
2022/01/23 12:04:21;;;;;;;1.75;1.42;;;7.20;99.90;;;;;;5067001;28;20464;-76
2022/01/23 12:07:14;;;;;;;2.97;1.40;;;7.20;99.90;;;;;;5065227;28;20063;-76
2022/01/23 12:09:43;;;;;;;2.05;1.20;;;7.20;99.90;;;;;;5058049;28;20061;-76
2022/01/23 12:12:31;;;;;;;3.05;1.58;;;7.20;99.90;;;;;;5063401;28;20056;-76
2022/01/23 12:18:20;;;;;;;2.83;1.30;;;7.20;99.90;;;;;;5063676;28;20044;-75
2022/01/23 12:20:47;;;;;;;5.53;1.20;;;7.20;99.90;;;;;;5055637;28;20048;-73
2022/01/23 12:23:16;;;;;;;1.60;1.42;;;7.20;99.90;;;;;;5099373;27;20048;-76
2022/01/23 12:25:47;;;;;;;2.22;1.48;;;7.20;99.90;;;;;;5068762;28;20090;-76
2022/01/23 12:28:31;;;;;;;3.17;2.05;;;7.20;99.90;;;;;;5069179;28;20040;-75
2022/01/23 12:31:16;;;;;;;2.50;1.98;;;7.20;99.90;;;;;;5067949;28;20053;-76
2022/01/23 12:33:46;;;;;;;3.38;2.17;;;7.10;99.90;;;;;;5076882;28;20053;-76
2022/01/23 12:36:15;;;;;;;3.80;2.47;;;7.10;99.90;;;;;;5071094;28;20052;-76
2022/01/23 12:38:47;;;;;;;2.88;2.33;;;7.10;99.90;;;;;;5066458;28;20052;-76
2022/01/23 12:41:27;;;;;;;3.38;2.13;;;7.10;99.90;;;;;;5062756;28;20048;-75
2022/01/23 12:43:59;;;;;;;4.00;2.35;;;7.10;99.90;;;;;;5102944;27;20055;-76
2022/01/23 12:46:30;;;;;;;3.53;2.15;;;7.10;99.90;;;;;;5065107;28;20045;-76
2022/01/23 12:48:59;;;;;;;2.42;1.92;;;7.10;99.90;;;;;;5102567;27;20048;-76
2022/01/23 12:51:33;;;;;;;3.42;2.30;;;7.10;99.90;;;;;;5062251;28;20047;-76
2022/01/23 12:53:58;;;;;;;2.88;2.50;;;7.10;99.90;;;;;;5066182;28;20443;-76
2022/01/23 12:56:34;;;;;;;3.25;2.65;;;7.10;99.90;;;;;;5066920;28;20070;-75
2022/01/23 12:59:11;;;;;;;4.05;2.55;;;7.10;99.90;;;;;;5065240;28;20769;-75
2022/01/23 13:01:41;;;;;;;2.72;2.47;;;7.10;99.90;;;;;;5070377;28;20055;-76
2022/01/23 13:04:08;;;;;;;4.30;3.28;;;7.10;99.90;;;;;;5065818;28;20486;-76
2022/01/23 13:06:49;;;;;;;3.67;2.42;;;7.10;99.90;;;;;;5057633;28;20057;-76
2022/01/23 13:09:31;;;;;;;6.18;3.53;;;7.10;99.90;;;;;;5100682;28;20040;-76
2022/01/23 13:14:47;;;;;;;4.30;2.38;;;7.10;99.90;;;;;;5069999;28;20059;-76
2022/01/23 13:26:23;;;;;;;5.75;2.55;;;7.00;99.90;;;;;;5057025;28;20044;-76
2022/01/23 13:30:37;;;;;;;5.78;2.30;;;7.00;99.90;;;;;;5066037;28;20052;-75
2022/01/23 13:33:09;;;;;;;3.60;2.47;;;7.00;99.90;;;;;;5060146;28;20057;-76
2022/01/23 13:35:40;;;;;;;7.03;3.30;;;7.00;99.90;;;;;;5068110;28;20075;-76
2022/01/23 13:38:10;;;;;;;4.57;2.80;;;7.00;99.90;;;;;;5064266;28;20122;-76
2022/01/23 13:40:40;;;;;;;3.97;2.70;;;7.00;99.90;;;;;;5069272;28;20401;-76
2022/01/23 13:51:33;;;;;;;6.05;4.32;;;7.00;99.90;;;;;;5067672;28;20512;-76
2022/01/23 13:59:44;;;;;;;31.67;7.13;;;7.10;99.90;;;;;;5062599;28;20053;-76
2022/01/23 14:02:23;;;;;;;19.58;6.53;;;7.00;99.90;;;;;;5067909;28;20055;-76
2022/01/23 14:04:56;;;;;;;11.35;5.00;;;7.00;99.90;;;;;;5068031;28;20056;-74
2022/01/23 14:07:27;;;;;;;29.27;6.90;;;7.10;99.90;;;;;;5066127;28;20072;-74
2022/01/23 14:10:09;;;;;;;38.90;7.22;;;7.10;99.90;;;;;;5061598;28;20072;-76
2022/01/23 14:12:35;;;;;;;7.90;4.07;;;7.00;99.90;;;;;;5067757;28;20105;-76
2022/01/23 14:15:08;;;;;;;7.13;4.00;;;7.10;99.90;;;;;;5063451;28;20076;-76
2022/01/23 14:17:39;;;;;;;4.47;3.25;;;7.10;99.90;;;;;;5101651;27;20048;-75
2022/01/23 14:20:16;;;;;;;5.55;3.65;;;7.10;99.90;;;;;;5079555;28;20055;-76
2022/01/23 14:22:47;;;;;;;6.93;4.47;;;7.10;99.90;;;;;;5067421;28;20044;-76
2022/01/23 14:25:18;;;;;;;4.50;3.20;;;7.00;99.90;;;;;;5066982;28;20436;-75
2022/01/23 14:27:48;;;;;;;3.38;2.78;;;7.00;99.90;;;;;;5057008;28;20181;-74
2022/01/23 14:30:21;;;;;;;3.35;2.75;;;7.00;99.90;;;;;;5065786;28;20041;-74
2022/01/23 14:32:51;;;;;;;6.43;3.53;;;7.00;99.90;;;;;;5065033;28;20118;-74
2022/01/23 14:35:26;;;;;;;4.38;3.08;;;7.00;99.90;;;;;;5102051;27;20056;-76
2022/01/23 14:37:53;;;;;;;5.28;3.15;;;6.90;99.90;;;;;;5066994;28;20061;-76
2022/01/23 14:40:22;;;;;;;5.60;3.13;;;6.90;99.90;;;;;;5061209;28;20045;-75
2022/01/23 14:43:04;;;;;;;4.43;3.47;;;6.90;99.90;;;;;;5097512;27;20048;-74
2022/01/23 14:45:34;;;;;;;4.88;3.60;;;6.90;99.90;;;;;;5063499;28;20401;-75
2022/01/23 14:48:01;;;;;;;5.03;3.13;;;6.90;99.90;;;;;;5076156;28;20132;-77
2022/01/23 14:50:30;;;;;;;6.00;3.70;;;6.90;99.90;;;;;;5059495;28;20047;-78
2022/01/23 14:52:56;;;;;;;4.90;3.08;;;6.90;99.90;;;;;;5075238;28;20083;-74
2022/01/23 14:55:22;;;;;;;4.50;3.13;;;6.90;99.90;;;;;;5098668;28;20511;-75
2022/01/23 14:57:49;;;;;;;7.32;4.00;;;6.90;99.90;;;;;;5057358;28;20846;-75
2022/01/23 15:00:16;;;;;;;5.70;4.30;;;6.90;99.90;;;;;;5068528;28;20096;-76
2022/01/23 15:02:42;;;;;;;5.45;4.10;;;6.90;99.90;;;;;;5061705;28;20123;-76
2022/01/23 15:05:08;;;;;;;4.47;3.40;;;6.90;99.90;;;;;;5068417;28;20576;-75
2022/01/23 15:07:40;;;;;;;6.95;4.68;;;6.90;99.90;;;;;;5066132;28;20078;-77
2022/01/23 15:10:08;;;;;;;5.18;3.80;;;6.90;99.90;;;;;;5062313;28;20087;-77
2022/01/23 15:12:34;;;;;;;5.05;4.28;;;6.90;99.90;;;;;;5068027;28;20056;-77
2022/01/23 15:15:00;;;;;;;5.55;4.65;;;6.80;99.90;;;;;;5102046;27;20766;-78
2022/01/23 15:17:26;;;;;;;3.88;3.47;;;6.80;99.90;;;;;;5061963;28;20051;-78
2022/01/23 15:19:53;;;;;;;25.02;6.70;;;6.80;99.90;;;;;;5096402;28;20044;-77
2022/01/23 15:22:19;;;;;;;14.30;4.05;;;6.80;99.90;;;;;;5062667;28;20115;-78
2022/01/23 15:24:45;;;;;;;3.65;3.30;;;6.80;99.90;;;;;;5058087;28;20131;-77
2022/01/23 15:27:11;;;;;;;5.65;4.35;;;6.80;99.90;;;;;;5064789;28;20056;-77
2022/01/23 15:29:37;;;;;;;5.07;3.60;;;6.80;99.90;;;;;;5064737;28;20098;-77
2022/01/23 15:32:03;;;;;;;5.60;4.20;;;6.80;99.90;;;;;;5065432;28;20049;-77
2022/01/23 15:34:30;;;;;;;4.70;3.50;;;6.80;99.90;;;;;;5061962;28;20106;-76
2022/01/23 15:36:56;;;;;;;9.35;3.65;;;6.70;99.90;;;;;;5057426;28;20048;-77
2022/01/23 15:39:25;;;;;;;5.68;4.10;;;6.80;99.90;;;;;;5068622;28;20127;-77
2022/01/23 15:41:51;;;;;;;6.43;4.40;;;6.80;99.90;;;;;;5058719;28;20131;-77
2022/01/23 15:44:16;;;;;;;5.90;4.40;;;6.80;99.90;;;;;;5062478;28;20052;-77
2022/01/23 15:46:43;;;;;;;5.90;3.80;;;6.70;99.90;;;;;;5064239;28;20516;-77
2022/01/23 15:49:09;;;;;;;4.93;4.10;;;6.70;99.90;;;;;;5053624;28;20506;-77
2022/01/23 15:51:36;;;;;;;6.88;3.83;;;6.70;99.90;;;;;;5061413;28;20091;-75
2022/01/23 15:54:02;;;;;;;5.53;3.95;;;6.70;99.90;;;;;;5059982;28;20075;-75
2022/01/23 15:56:29;;;;;;;10.85;5.68;;;6.70;99.90;;;;;;5063858;28;20413;-75
2022/01/23 15:58:55;;;;;;;6.97;5.15;;;6.70;99.90;;;;;;5058497;28;20033;-75
2022/01/23 16:01:21;;;;;;;10.00;4.97;;;6.70;99.90;;;;;;5097412;28;20052;-75
2022/01/23 16:03:47;;;;;;;6.03;3.92;;;6.60;99.90;;;;;;5062966;28;20505;-74
2022/01/23 16:06:13;;;;;;;6.20;3.88;;;6.60;99.90;;;;;;5096985;28;20412;-76
2022/01/23 16:08:39;;;;;;;4.85;4.03;;;6.60;99.90;;;;;;5063659;28;20048;-76
2022/01/23 16:11:07;;;;;;;6.13;4.57;;;6.60;99.90;;;;;;5067102;28;20043;-77
2022/01/23 16:13:33;;;;;;;5.93;4.20;;;6.60;99.90;;;;;;5065000;28;20048;-78
2022/01/23 16:15:59;;;;;;;8.23;4.93;;;6.50;99.90;;;;;;5076242;28;20174;-77